sensor_id;sensor_type;location;lat;lon;timestamp;P1;durP1;ratioP1;P2;durP2;ratioP2
28166;SDS011;15455;53.376;-6.262;2023-01-15T00:02:24;7.45;;;1.30;;
28166;SDS011;15455;53.376;-6.262;2023-01-15T00:05:10;3.67;;;1.27;;
28166;SDS011;15455;53.376;-6.262;2023-01-15T00:07:55;2.17;;;0.90;;
28166;SDS011;15455;53.376;-6.262;2023-01-15T00:10:40;3.17;;;0.90;;
28166;SDS011;15455;53.376;-6.262;2023-01-15T00:13:26;3.00;;;1.08;;
28166;SDS011;15455;53.376;-6.262;2023-01-15T00:16:16;4.22;;;0.85;;
28166;SDS011;15455;53.376;-6.262;2023-01-15T00:19:04;8.50;;;1.38;;
28166;SDS011;15455;53.376;-6.262;2023-01-15T00:21:52;3.33;;;0.93;;
28166;SDS011;15455;53.376;-6.262;2023-01-15T00:24:38;4.68;;;1.35;;
28166;SDS011;15455;53.376;-6.262;2023-01-15T00:27:48;1.75;;;0.57;;
28166;SDS011;15455;53.376;-6.262;2023-01-15T00:30:34;1.58;;;0.93;;
28166;SDS011;15455;53.376;-6.262;2023-01-15T00:33:29;2.97;;;0.90;;
28166;SDS011;15455;53.376;-6.262;2023-01-15T00:36:15;1.95;;;0.60;;
28166;SDS011;15455;53.376;-6.262;2023-01-15T00:39:00;1.75;;;1.00;;
28166;SDS011;15455;53.376;-6.262;2023-01-15T00:41:46;4.97;;;1.27;;
28166;SDS011;15455;53.376;-6.262;2023-01-15T00:44:32;1.85;;;0.93;;
28166;SDS011;15455;53.376;-6.262;2023-01-15T00:47:17;3.95;;;1.00;;
28166;SDS011;15455;53.376;-6.262;2023-01-15T00:50:06;2.45;;;0.60;;
28166;SDS011;15455;53.376;-6.262;2023-01-15T00:52:54;1.52;;;0.85;;
28166;SDS011;15455;53.376;-6.262;2023-01-15T00:55:39;8.65;;;1.52;;
28166;SDS011;15455;53.376;-6.262;2023-01-15T00:58:25;5.35;;;1.98;;
28166;SDS011;15455;53.376;-6.262;2023-01-15T01:01:10;4.35;;;1.25;;
28166;SDS011;15455;53.376;-6.262;2023-01-15T01:03:56;1.80;;;1.33;;
28166;SDS011;15455;53.376;-6.262;2023-01-15T01:06:42;3.67;;;1.13;;
28166;SDS011;15455;53.376;-6.262;2023-01-15T01:09:28;3.50;;;1.00;;
28166;SDS011;15455;53.376;-6.262;2023-01-15T01:12:14;5.53;;;1.65;;
28166;SDS011;15455;53.376;-6.262;2023-01-15T01:14:59;6.68;;;1.38;;
28166;SDS011;15455;53.376;-6.262;2023-01-15T01:17:45;2.13;;;0.82;;
28166;SDS011;15455;53.376;-6.262;2023-01-15T01:20:31;9.98;;;1.00;;
28166;SDS011;15455;53.376;-6.262;2023-01-15T01:23:17;1.63;;;0.68;;
28166;SDS011;15455;53.376;-6.262;2023-01-15T01:26:03;1.30;;;0.60;;
28166;SDS011;15455;53.376;-6.262;2023-01-15T01:28:50;2.92;;;0.98;;
28166;SDS011;15455;53.376;-6.262;2023-01-15T01:31:37;2.20;;;1.00;;
28166;SDS011;15455;53.376;-6.262;2023-01-15T01:34:22;0.98;;;0.70;;
28166;SDS011;15455;53.376;-6.262;2023-01-15T01:37:08;1.50;;;0.57;;
28166;SDS011;15455;53.376;-6.262;2023-01-15T01:39:53;0.93;;;0.60;;
28166;SDS011;15455;53.376;-6.262;2023-01-15T01:42:39;1.20;;;0.50;;
28166;SDS011;15455;53.376;-6.262;2023-01-15T01:45:30;1.15;;;0.63;;
28166;SDS011;15455;53.376;-6.262;2023-01-15T01:48:18;0.40;;;0.40;;
28166;SDS011;15455;53.376;-6.262;2023-01-15T01:51:09;4.93;;;0.83;;
28166;SDS011;15455;53.376;-6.262;2023-01-15T01:53:55;7.97;;;0.77;;
28166;SDS011;15455;53.376;-6.262;2023-01-15T01:56:42;1.08;;;0.30;;
28166;SDS011;15455;53.376;-6.262;2023-01-15T01:59:28;0.80;;;0.32;;
28166;SDS011;15455;53.376;-6.262;2023-01-15T02:02:14;1.55;;;1.23;;
28166;SDS011;15455;53.376;-6.262;2023-01-15T02:05:03;1.85;;;0.63;;
28166;SDS011;15455;53.376;-6.262;2023-01-15T02:07:51;0.40;;;0.30;;
28166;SDS011;15455;53.376;-6.262;2023-01-15T02:10:37;3.95;;;0.55;;
28166;SDS011;15455;53.376;-6.262;2023-01-15T02:13:25;1.55;;;0.60;;
28166;SDS011;15455;53.376;-6.262;2023-01-15T02:19:18;4.13;;;0.75;;
28166;SDS011;15455;53.376;-6.262;2023-01-15T02:28:17;1.10;;;0.50;;
28166;SDS011;15455;53.376;-6.262;2023-01-15T02:31:34;1.08;;;0.73;;
28166;SDS011;15455;53.376;-6.262;2023-01-15T02:34:24;2.17;;;0.80;;
28166;SDS011;15455;53.376;-6.262;2023-01-15T02:37:15;1.08;;;0.98;;
28166;SDS011;15455;53.376;-6.262;2023-01-15T02:40:06;4.47;;;0.65;;
28166;SDS011;15455;53.376;-6.262;2023-01-15T02:42:55;7.25;;;0.90;;
28166;SDS011;15455;53.376;-6.262;2023-01-15T02:45:44;0.73;;;0.40;;
28166;SDS011;15455;53.376;-6.262;2023-01-15T02:48:35;1.83;;;0.60;;
28166;SDS011;15455;53.376;-6.262;2023-01-15T02:51:23;2.17;;;0.75;;
28166;SDS011;15455;53.376;-6.262;2023-01-15T02:54:13;1.63;;;0.68;;
28166;SDS011;15455;53.376;-6.262;2023-01-15T02:57:01;3.05;;;0.80;;
28166;SDS011;15455;53.376;-6.262;2023-01-15T02:59:49;0.35;;;0.35;;
28166;SDS011;15455;53.376;-6.262;2023-01-15T03:02:40;4.38;;;1.08;;
28166;SDS011;15455;53.376;-6.262;2023-01-15T03:05:35;3.60;;;1.30;;
28166;SDS011;15455;53.376;-6.262;2023-01-15T03:08:26;2.10;;;0.88;;
28166;SDS011;15455;53.376;-6.262;2023-01-15T03:11:12;6.20;;;1.33;;
28166;SDS011;15455;53.376;-6.262;2023-01-15T03:14:15;6.45;;;0.73;;
28166;SDS011;15455;53.376;-6.262;2023-01-15T03:17:27;1.77;;;1.15;;
28166;SDS011;15455;53.376;-6.262;2023-01-15T03:20:24;4.07;;;0.70;;
28166;SDS011;15455;53.376;-6.262;2023-01-15T03:23:12;2.83;;;1.25;;
28166;SDS011;15455;53.376;-6.262;2023-01-15T03:26:01;3.90;;;0.85;;
28166;SDS011;15455;53.376;-6.262;2023-01-15T03:28:47;7.63;;;1.05;;
28166;SDS011;15455;53.376;-6.262;2023-01-15T03:31:34;2.25;;;0.88;;
28166;SDS011;15455;53.376;-6.262;2023-01-15T03:34:21;5.03;;;1.08;;
28166;SDS011;15455;53.376;-6.262;2023-01-15T03:37:08;5.88;;;1.05;;
28166;SDS011;15455;53.376;-6.262;2023-01-15T03:39:55;1.65;;;0.82;;
28166;SDS011;15455;53.376;-6.262;2023-01-15T03:42:45;8.70;;;0.68;;
28166;SDS011;15455;53.376;-6.262;2023-01-15T03:46:00;2.25;;;1.25;;
28166;SDS011;15455;53.376;-6.262;2023-01-15T03:48:55;4.25;;;0.73;;
28166;SDS011;15455;53.376;-6.262;2023-01-15T03:52:07;5.20;;;1.00;;
28166;SDS011;15455;53.376;-6.262;2023-01-15T03:58:08;7.88;;;1.25;;
28166;SDS011;15455;53.376;-6.262;2023-01-15T04:01:02;3.55;;;0.77;;
28166;SDS011;15455;53.376;-6.262;2023-01-15T04:03:55;6.18;;;1.05;;
28166;SDS011;15455;53.376;-6.262;2023-01-15T04:06:46;10.27;;;1.23;;
28166;SDS011;15455;53.376;-6.262;2023-01-15T04:09:35;2.83;;;1.02;;
28166;SDS011;15455;53.376;-6.262;2023-01-15T04:12:25;10.75;;;1.50;;
28166;SDS011;15455;53.376;-6.262;2023-01-15T04:15:13;3.70;;;1.00;;
28166;SDS011;15455;53.376;-6.262;2023-01-15T04:18:00;3.20;;;0.75;;
28166;SDS011;15455;53.376;-6.262;2023-01-15T04:20:48;5.60;;;1.38;;
28166;SDS011;15455;53.376;-6.262;2023-01-15T04:23:33;8.55;;;0.77;;
28166;SDS011;15455;53.376;-6.262;2023-01-15T04:26:19;7.13;;;0.90;;
28166;SDS011;15455;53.376;-6.262;2023-01-15T04:29:04;2.80;;;0.57;;
28166;SDS011;15455;53.376;-6.262;2023-01-15T04:31:50;13.73;;;1.13;;
28166;SDS011;15455;53.376;-6.262;2023-01-15T04:34:41;1.95;;;0.68;;
28166;SDS011;15455;53.376;-6.262;2023-01-15T04:37:26;7.93;;;0.95;;
28166;SDS011;15455;53.376;-6.262;2023-01-15T04:40:12;8.95;;;0.98;;
28166;SDS011;15455;53.376;-6.262;2023-01-15T04:43:17;5.57;;;0.77;;
28166;SDS011;15455;53.376;-6.262;2023-01-15T04:46:22;3.60;;;0.98;;
28166;SDS011;15455;53.376;-6.262;2023-01-15T04:49:10;8.20;;;0.77;;
28166;SDS011;15455;53.376;-6.262;2023-01-15T04:51:57;11.05;;;1.25;;
28166;SDS011;15455;53.376;-6.262;2023-01-15T04:54:42;12.63;;;0.88;;
28166;SDS011;15455;53.376;-6.262;2023-01-15T04:57:28;5.93;;;0.93;;
28166;SDS011;15455;53.376;-6.262;2023-01-15T05:00:14;5.57;;;0.68;;
28166;SDS011;15455;53.376;-6.262;2023-01-15T05:03:00;5.40;;;0.95;;
28166;SDS011;15455;53.376;-6.262;2023-01-15T05:05:45;7.53;;;1.45;;
28166;SDS011;15455;53.376;-6.262;2023-01-15T05:08:31;8.70;;;0.82;;
28166;SDS011;15455;53.376;-6.262;2023-01-15T05:11:17;8.38;;;1.55;;
28166;SDS011;15455;53.376;-6.262;2023-01-15T05:14:02;10.70;;;1.55;;
28166;SDS011;15455;53.376;-6.262;2023-01-15T05:16:48;5.72;;;0.75;;
28166;SDS011;15455;53.376;-6.262;2023-01-15T05:19:33;7.30;;;1.30;;
28166;SDS011;15455;53.376;-6.262;2023-01-15T05:22:18;3.22;;;0.73;;
28166;SDS011;15455;53.376;-6.262;2023-01-15T05:25:04;11.93;;;0.90;;
28166;SDS011;15455;53.376;-6.262;2023-01-15T05:27:50;8.40;;;0.85;;
28166;SDS011;15455;53.376;-6.262;2023-01-15T05:30:35;5.88;;;0.85;;
28166;SDS011;15455;53.376;-6.262;2023-01-15T05:33:20;10.52;;;1.27;;
28166;SDS011;15455;53.376;-6.262;2023-01-15T05:36:07;7.32;;;1.10;;
28166;SDS011;15455;53.376;-6.262;2023-01-15T05:38:57;8.77;;;1.38;;
28166;SDS011;15455;53.376;-6.262;2023-01-15T05:41:46;7.93;;;1.67;;
28166;SDS011;15455;53.376;-6.262;2023-01-15T05:44:35;4.22;;;0.80;;
28166;SDS011;15455;53.376;-6.262;2023-01-15T05:47:21;2.35;;;0.70;;
28166;SDS011;15455;53.376;-6.262;2023-01-15T05:50:06;6.22;;;1.48;;
28166;SDS011;15455;53.376;-6.262;2023-01-15T05:52:52;0.60;;;0.40;;
28166;SDS011;15455;53.376;-6.262;2023-01-15T05:55:38;0.93;;;0.47;;
28166;SDS011;15455;53.376;-6.262;2023-01-15T05:58:23;6.63;;;0.70;;
28166;SDS011;15455;53.376;-6.262;2023-01-15T06:01:09;6.43;;;1.48;;
28166;SDS011;15455;53.376;-6.262;2023-01-15T06:03:58;8.15;;;0.88;;
28166;SDS011;15455;53.376;-6.262;2023-01-15T06:06:45;3.72;;;0.57;;
28166;SDS011;15455;53.376;-6.262;2023-01-15T06:09:32;10.35;;;1.75;;
28166;SDS011;15455;53.376;-6.262;2023-01-15T06:12:17;3.25;;;0.82;;
28166;SDS011;15455;53.376;-6.262;2023-01-15T06:15:03;5.05;;;0.80;;
28166;SDS011;15455;53.376;-6.262;2023-01-15T06:17:49;10.85;;;1.35;;
28166;SDS011;15455;53.376;-6.262;2023-01-15T06:20:35;7.43;;;0.63;;
28166;SDS011;15455;53.376;-6.262;2023-01-15T06:23:21;1.58;;;0.57;;
28166;SDS011;15455;53.376;-6.262;2023-01-15T06:26:09;3.45;;;0.90;;
28166;SDS011;15455;53.376;-6.262;2023-01-15T06:29:00;3.53;;;0.70;;
28166;SDS011;15455;53.376;-6.262;2023-01-15T06:31:45;3.75;;;0.90;;
28166;SDS011;15455;53.376;-6.262;2023-01-15T06:34:31;8.23;;;0.80;;
28166;SDS011;15455;53.376;-6.262;2023-01-15T06:37:17;8.10;;;1.10;;
28166;SDS011;15455;53.376;-6.262;2023-01-15T06:40:02;9.65;;;1.27;;
28166;SDS011;15455;53.376;-6.262;2023-01-15T06:42:48;5.82;;;1.08;;
28166;SDS011;15455;53.376;-6.262;2023-01-15T06:45:53;5.00;;;0.88;;
28166;SDS011;15455;53.376;-6.262;2023-01-15T06:48:57;3.17;;;0.77;;
28166;SDS011;15455;53.376;-6.262;2023-01-15T06:51:43;9.60;;;0.63;;
28166;SDS011;15455;53.376;-6.262;2023-01-15T06:54:28;4.90;;;0.90;;
28166;SDS011;15455;53.376;-6.262;2023-01-15T06:57:14;13.38;;;1.52;;
28166;SDS011;15455;53.376;-6.262;2023-01-15T07:00:00;10.43;;;1.17;;
28166;SDS011;15455;53.376;-6.262;2023-01-15T07:02:45;4.53;;;0.60;;
28166;SDS011;15455;53.376;-6.262;2023-01-15T07:05:30;4.97;;;0.50;;
28166;SDS011;15455;53.376;-6.262;2023-01-15T07:08:16;9.10;;;1.00;;
28166;SDS011;15455;53.376;-6.262;2023-01-15T07:11:02;1.38;;;0.50;;
28166;SDS011;15455;53.376;-6.262;2023-01-15T07:13:49;6.75;;;0.63;;
28166;SDS011;15455;53.376;-6.262;2023-01-15T07:16:36;4.47;;;0.80;;
28166;SDS011;15455;53.376;-6.262;2023-01-15T07:19:21;3.88;;;0.70;;
28166;SDS011;15455;53.376;-6.262;2023-01-15T07:22:08;4.78;;;0.80;;
28166;SDS011;15455;53.376;-6.262;2023-01-15T07:24:54;6.32;;;1.15;;
28166;SDS011;15455;53.376;-6.262;2023-01-15T07:27:40;5.55;;;0.70;;
28166;SDS011;15455;53.376;-6.262;2023-01-15T07:30:26;5.70;;;0.95;;
28166;SDS011;15455;53.376;-6.262;2023-01-15T07:33:12;11.98;;;0.80;;
28166;SDS011;15455;53.376;-6.262;2023-01-15T07:36:00;2.15;;;0.75;;
28166;SDS011;15455;53.376;-6.262;2023-01-15T07:38:47;7.68;;;0.95;;
28166;SDS011;15455;53.376;-6.262;2023-01-15T07:41:33;3.65;;;1.02;;
28166;SDS011;15455;53.376;-6.262;2023-01-15T07:44:37;5.25;;;0.95;;
28166;SDS011;15455;53.376;-6.262;2023-01-15T07:47:41;4.47;;;0.80;;
28166;SDS011;15455;53.376;-6.262;2023-01-15T07:50:45;5.45;;;0.70;;
28166;SDS011;15455;53.376;-6.262;2023-01-15T07:53:31;3.90;;;0.82;;
28166;SDS011;15455;53.376;-6.262;2023-01-15T07:56:16;12.52;;;0.80;;
28166;SDS011;15455;53.376;-6.262;2023-01-15T07:59:02;2.85;;;0.93;;
28166;SDS011;15455;53.376;-6.262;2023-01-15T08:01:47;3.22;;;0.70;;
28166;SDS011;15455;53.376;-6.262;2023-01-15T08:04:33;17.73;;;1.77;;
28166;SDS011;15455;53.376;-6.262;2023-01-15T08:07:19;10.52;;;1.55;;
28166;SDS011;15455;53.376;-6.262;2023-01-15T08:10:05;6.00;;;0.85;;
28166;SDS011;15455;53.376;-6.262;2023-01-15T08:12:51;13.63;;;1.20;;
28166;SDS011;15455;53.376;-6.262;2023-01-15T08:15:55;9.45;;;1.42;;
28166;SDS011;15455;53.376;-6.262;2023-01-15T08:18:40;4.28;;;1.17;;
28166;SDS011;15455;53.376;-6.262;2023-01-15T08:21:26;10.55;;;1.90;;
28166;SDS011;15455;53.376;-6.262;2023-01-15T08:24:11;6.45;;;1.30;;
28166;SDS011;15455;53.376;-6.262;2023-01-15T08:26:56;7.32;;;0.75;;
28166;SDS011;15455;53.376;-6.262;2023-01-15T08:29:42;5.95;;;1.30;;
28166;SDS011;15455;53.376;-6.262;2023-01-15T08:32:27;10.32;;;1.85;;
28166;SDS011;15455;53.376;-6.262;2023-01-15T08:35:13;12.27;;;1.33;;
28166;SDS011;15455;53.376;-6.262;2023-01-15T08:38:02;10.18;;;1.15;;
28166;SDS011;15455;53.376;-6.262;2023-01-15T08:40:53;4.25;;;1.60;;
28166;SDS011;15455;53.376;-6.262;2023-01-15T08:43:47;11.85;;;1.30;;
28166;SDS011;15455;53.376;-6.262;2023-01-15T08:46:32;13.93;;;2.45;;
28166;SDS011;15455;53.376;-6.262;2023-01-15T08:49:18;10.75;;;1.65;;
28166;SDS011;15455;53.376;-6.262;2023-01-15T08:52:05;7.05;;;1.23;;
28166;SDS011;15455;53.376;-6.262;2023-01-15T08:54:50;10.68;;;2.25;;
28166;SDS011;15455;53.376;-6.262;2023-01-15T08:57:36;13.23;;;2.15;;
28166;SDS011;15455;53.376;-6.262;2023-01-15T09:00:22;9.43;;;1.05;;
28166;SDS011;15455;53.376;-6.262;2023-01-15T09:03:08;7.18;;;1.73;;
28166;SDS011;15455;53.376;-6.262;2023-01-15T09:05:57;10.50;;;1.33;;
28166;SDS011;15455;53.376;-6.262;2023-01-15T09:08:46;9.45;;;1.58;;
28166;SDS011;15455;53.376;-6.262;2023-01-15T09:11:31;10.65;;;1.40;;
28166;SDS011;15455;53.376;-6.262;2023-01-15T09:14:17;15.20;;;2.03;;
28166;SDS011;15455;53.376;-6.262;2023-01-15T09:17:22;10.48;;;1.58;;
28166;SDS011;15455;53.376;-6.262;2023-01-15T09:20:10;26.73;;;2.20;;
28166;SDS011;15455;53.376;-6.262;2023-01-15T09:22:57;9.30;;;1.25;;
28166;SDS011;15455;53.376;-6.262;2023-01-15T09:25:55;11.80;;;1.50;;
28166;SDS011;15455;53.376;-6.262;2023-01-15T09:28:50;8.65;;;1.38;;
28166;SDS011;15455;53.376;-6.262;2023-01-15T09:31:35;12.23;;;1.27;;
28166;SDS011;15455;53.376;-6.262;2023-01-15T09:34:21;18.40;;;2.13;;
28166;SDS011;15455;53.376;-6.262;2023-01-15T09:37:07;11.45;;;1.60;;
28166;SDS011;15455;53.376;-6.262;2023-01-15T09:39:52;11.73;;;1.58;;
28166;SDS011;15455;53.376;-6.262;2023-01-15T09:42:45;7.70;;;1.60;;
28166;SDS011;15455;53.376;-6.262;2023-01-15T09:45:44;8.00;;;1.38;;
28166;SDS011;15455;53.376;-6.262;2023-01-15T09:57:39;5.80;;;1.55;;
28166;SDS011;15455;53.376;-6.262;2023-01-15T10:00:27;14.35;;;1.52;;
28166;SDS011;15455;53.376;-6.262;2023-01-15T10:06:09;4.20;;;1.10;;
28166;SDS011;15455;53.376;-6.262;2023-01-15T10:09:08;9.13;;;1.67;;
28166;SDS011;15455;53.376;-6.262;2023-01-15T10:11:59;11.57;;;1.30;;
28166;SDS011;15455;53.376;-6.262;2023-01-15T10:15:16;8.80;;;1.92;;
28166;SDS011;15455;53.376;-6.262;2023-01-15T10:18:18;12.32;;;1.73;;
28166;SDS011;15455;53.376;-6.262;2023-01-15T10:21:14;7.28;;;1.65;;
28166;SDS011;15455;53.376;-6.262;2023-01-15T10:27:14;5.85;;;0.95;;
28166;SDS011;15455;53.376;-6.262;2023-01-15T10:30:07;10.15;;;0.90;;
28166;SDS011;15455;53.376;-6.262;2023-01-15T10:32:57;3.13;;;1.60;;
28166;SDS011;15455;53.376;-6.262;2023-01-15T10:35:54;9.43;;;1.23;;
28166;SDS011;15455;53.376;-6.262;2023-01-15T10:39:01;16.98;;;1.85;;
28166;SDS011;15455;53.376;-6.262;2023-01-15T10:45:23;4.45;;;1.50;;
28166;SDS011;15455;53.376;-6.262;2023-01-15T10:48:18;9.35;;;1.92;;
28166;SDS011;15455;53.376;-6.262;2023-01-15T10:54:13;8.20;;;1.63;;
28166;SDS011;15455;53.376;-6.262;2023-01-15T10:57:09;5.22;;;1.50;;
28166;SDS011;15455;53.376;-6.262;2023-01-15T11:00:14;5.45;;;1.48;;
28166;SDS011;15455;53.376;-6.262;2023-01-15T11:03:02;5.18;;;1.27;;
28166;SDS011;15455;53.376;-6.262;2023-01-15T11:05:52;8.07;;;1.10;;
28166;SDS011;15455;53.376;-6.262;2023-01-15T11:08:38;6.82;;;1.17;;
28166;SDS011;15455;53.376;-6.262;2023-01-15T11:11:47;2.67;;;1.00;;
28166;SDS011;15455;53.376;-6.262;2023-01-15T11:14:44;2.60;;;0.88;;
28166;SDS011;15455;53.376;-6.262;2023-01-15T11:17:49;6.40;;;1.60;;
28166;SDS011;15455;53.376;-6.262;2023-01-15T11:20:53;9.23;;;1.20;;
28166;SDS011;15455;53.376;-6.262;2023-01-15T11:23:38;6.43;;;1.90;;
28166;SDS011;15455;53.376;-6.262;2023-01-15T11:26:26;10.25;;;1.48;;
28166;SDS011;15455;53.376;-6.262;2023-01-15T11:29:49;8.32;;;1.05;;
28166;SDS011;15455;53.376;-6.262;2023-01-15T11:35:19;7.50;;;1.43;;
28166;SDS011;15455;53.376;-6.262;2023-01-15T11:38:05;6.93;;;1.35;;
28166;SDS011;15455;53.376;-6.262;2023-01-15T11:41:00;3.33;;;1.30;;
28166;SDS011;15455;53.376;-6.262;2023-01-15T11:47:03;3.65;;;1.08;;
28166;SDS011;15455;53.376;-6.262;2023-01-15T11:50:16;9.00;;;2.13;;
28166;SDS011;15455;53.376;-6.262;2023-01-15T11:53:23;14.50;;;2.42;;
28166;SDS011;15455;53.376;-6.262;2023-01-15T11:56:15;9.85;;;1.80;;
28166;SDS011;15455;53.376;-6.262;2023-01-15T11:59:09;11.48;;;1.48;;
28166;SDS011;15455;53.376;-6.262;2023-01-15T12:02:03;5.78;;;1.85;;
28166;SDS011;15455;53.376;-6.262;2023-01-15T12:05:28;4.03;;;1.52;;
28166;SDS011;15455;53.376;-6.262;2023-01-15T12:08:25;4.15;;;1.50;;
28166;SDS011;15455;53.376;-6.262;2023-01-15T12:11:28;13.65;;;1.90;;
28166;SDS011;15455;53.376;-6.262;2023-01-15T12:17:24;9.48;;;1.92;;
28166;SDS011;15455;53.376;-6.262;2023-01-15T12:23:35;4.10;;;1.23;;
28166;SDS011;15455;53.376;-6.262;2023-01-15T12:26:29;10.93;;;1.67;;
28166;SDS011;15455;53.376;-6.262;2023-01-15T12:29:20;7.63;;;1.75;;
28166;SDS011;15455;53.376;-6.262;2023-01-15T12:32:12;3.33;;;1.17;;
28166;SDS011;15455;53.376;-6.262;2023-01-15T12:35:04;6.70;;;1.45;;
28166;SDS011;15455;53.376;-6.262;2023-01-15T12:38:07;2.80;;;1.30;;
28166;SDS011;15455;53.376;-6.262;2023-01-15T12:41:18;1.77;;;1.08;;
28166;SDS011;15455;53.376;-6.262;2023-01-15T12:44:10;12.40;;;1.52;;
28166;SDS011;15455;53.376;-6.262;2023-01-15T12:47:15;8.88;;;1.50;;
28166;SDS011;15455;53.376;-6.262;2023-01-15T12:53:31;5.25;;;1.60;;
28166;SDS011;15455;53.376;-6.262;2023-01-15T12:59:13;6.15;;;1.70;;
28166;SDS011;15455;53.376;-6.262;2023-01-15T13:02:32;4.90;;;1.58;;
28166;SDS011;15455;53.376;-6.262;2023-01-15T13:05:20;4.20;;;1.35;;
28166;SDS011;15455;53.376;-6.262;2023-01-15T13:11:31;6.38;;;2.22;;
28166;SDS011;15455;53.376;-6.262;2023-01-15T13:14:17;12.73;;;4.60;;
28166;SDS011;15455;53.376;-6.262;2023-01-15T13:17:21;17.45;;;12.52;;
28166;SDS011;15455;53.376;-6.262;2023-01-15T13:29:42;81.03;;;40.03;;
28166;SDS011;15455;53.376;-6.262;2023-01-15T13:32:42;10.52;;;5.35;;
28166;SDS011;15455;53.376;-6.262;2023-01-15T13:35:33;5.28;;;2.53;;
28166;SDS011;15455;53.376;-6.262;2023-01-15T13:38:25;9.48;;;5.95;;
28166;SDS011;15455;53.376;-6.262;2023-01-15T13:41:17;7.53;;;2.90;;
28166;SDS011;15455;53.376;-6.262;2023-01-15T13:44:30;12.95;;;7.60;;
28166;SDS011;15455;53.376;-6.262;2023-01-15T13:47:24;4.78;;;2.72;;
28166;SDS011;15455;53.376;-6.262;2023-01-15T13:50:34;6.38;;;4.88;;
28166;SDS011;15455;53.376;-6.262;2023-01-15T13:53:34;13.55;;;4.97;;
28166;SDS011;15455;53.376;-6.262;2023-01-15T13:56:26;13.13;;;7.93;;
28166;SDS011;15455;53.376;-6.262;2023-01-15T13:59:29;13.23;;;9.07;;
28166;SDS011;15455;53.376;-6.262;2023-01-15T14:08:22;14.93;;;8.95;;
28166;SDS011;15455;53.376;-6.262;2023-01-15T14:29:01;12.18;;;4.28;;
28166;SDS011;15455;53.376;-6.262;2023-01-15T14:35:11;6.93;;;2.67;;
28166;SDS011;15455;53.376;-6.262;2023-01-15T14:38:03;8.25;;;4.13;;
28166;SDS011;15455;53.376;-6.262;2023-01-15T14:40:58;5.45;;;2.30;;
28166;SDS011;15455;53.376;-6.262;2023-01-15T14:43:47;10.20;;;2.15;;
28166;SDS011;15455;53.376;-6.262;2023-01-15T14:46:33;5.80;;;2.88;;
28166;SDS011;15455;53.376;-6.262;2023-01-15T14:49:29;9.65;;;2.90;;
28166;SDS011;15455;53.376;-6.262;2023-01-15T14:52:20;4.45;;;3.00;;
28166;SDS011;15455;53.376;-6.262;2023-01-15T14:55:08;4.97;;;3.40;;
28166;SDS011;15455;53.376;-6.262;2023-01-15T14:57:58;5.85;;;3.30;;
28166;SDS011;15455;53.376;-6.262;2023-01-15T15:00:50;6.68;;;2.95;;
28166;SDS011;15455;53.376;-6.262;2023-01-15T15:03:44;7.93;;;3.85;;
28166;SDS011;15455;53.376;-6.262;2023-01-15T15:07:52;3.25;;;2.13;;
28166;SDS011;15455;53.376;-6.262;2023-01-15T15:13:28;4.60;;;2.88;;
28166;SDS011;15455;53.376;-6.262;2023-01-15T15:16:23;2.92;;;2.30;;
28166;SDS011;15455;53.376;-6.262;2023-01-15T15:19:17;5.90;;;2.55;;
28166;SDS011;15455;53.376;-6.262;2023-01-15T15:22:12;5.88;;;3.00;;
28166;SDS011;15455;53.376;-6.262;2023-01-15T15:25:03;4.97;;;3.53;;
28166;SDS011;15455;53.376;-6.262;2023-01-15T15:28:04;3.75;;;2.45;;
28166;SDS011;15455;53.376;-6.262;2023-01-15T15:30:53;6.43;;;2.58;;
28166;SDS011;15455;53.376;-6.262;2023-01-15T15:33:41;4.15;;;2.60;;
28166;SDS011;15455;53.376;-6.262;2023-01-15T15:36:28;4.50;;;3.10;;
28166;SDS011;15455;53.376;-6.262;2023-01-15T15:39:21;4.43;;;3.30;;
28166;SDS011;15455;53.376;-6.262;2023-01-15T15:42:23;5.80;;;3.05;;
28166;SDS011;15455;53.376;-6.262;2023-01-15T15:45:31;3.95;;;2.85;;
28166;SDS011;15455;53.376;-6.262;2023-01-15T15:48:36;6.50;;;3.67;;
28166;SDS011;15455;53.376;-6.262;2023-01-15T15:51:33;4.85;;;3.70;;
28166;SDS011;15455;53.376;-6.262;2023-01-15T15:54:20;4.57;;;2.60;;
28166;SDS011;15455;53.376;-6.262;2023-01-15T15:57:12;7.47;;;4.68;;
28166;SDS011;15455;53.376;-6.262;2023-01-15T16:00:02;8.13;;;4.78;;
28166;SDS011;15455;53.376;-6.262;2023-01-15T16:02:48;15.20;;;7.55;;
28166;SDS011;15455;53.376;-6.262;2023-01-15T16:05:35;6.57;;;5.50;;
28166;SDS011;15455;53.376;-6.262;2023-01-15T16:08:20;13.63;;;8.73;;
28166;SDS011;15455;53.376;-6.262;2023-01-15T16:11:07;16.95;;;10.57;;
28166;SDS011;15455;53.376;-6.262;2023-01-15T16:13:56;17.23;;;6.05;;
28166;SDS011;15455;53.376;-6.262;2023-01-15T16:16:44;6.75;;;4.65;;
28166;SDS011;15455;53.376;-6.262;2023-01-15T16:19:30;8.90;;;5.07;;
28166;SDS011;15455;53.376;-6.262;2023-01-15T16:22:16;7.50;;;4.70;;
28166;SDS011;15455;53.376;-6.262;2023-01-15T16:25:03;10.40;;;6.35;;
28166;SDS011;15455;53.376;-6.262;2023-01-15T16:27:49;10.43;;;6.50;;
28166;SDS011;15455;53.376;-6.262;2023-01-15T16:30:35;12.00;;;7.20;;
28166;SDS011;15455;53.376;-6.262;2023-01-15T16:33:21;11.57;;;6.93;;
28166;SDS011;15455;53.376;-6.262;2023-01-15T16:36:07;9.05;;;4.22;;
28166;SDS011;15455;53.376;-6.262;2023-01-15T16:38:53;11.73;;;5.13;;
28166;SDS011;15455;53.376;-6.262;2023-01-15T16:41:39;7.82;;;5.00;;
28166;SDS011;15455;53.376;-6.262;2023-01-15T16:44:40;6.75;;;4.43;;
28166;SDS011;15455;53.376;-6.262;2023-01-15T16:47:34;12.07;;;5.03;;
28166;SDS011;15455;53.376;-6.262;2023-01-15T16:53:15;8.55;;;4.30;;
28166;SDS011;15455;53.376;-6.262;2023-01-15T16:57:03;11.43;;;5.32;;
28166;SDS011;15455;53.376;-6.262;2023-01-15T17:02:15;14.55;;;11.45;;
28166;SDS011;15455;53.376;-6.262;2023-01-15T17:05:12;10.02;;;5.95;;
28166;SDS011;15455;53.376;-6.262;2023-01-15T17:08:01;11.80;;;6.38;;
28166;SDS011;15455;53.376;-6.262;2023-01-15T17:10:51;16.25;;;9.18;;
28166;SDS011;15455;53.376;-6.262;2023-01-15T17:13:38;8.30;;;4.05;;
28166;SDS011;15455;53.376;-6.262;2023-01-15T17:16:24;8.05;;;4.28;;
28166;SDS011;15455;53.376;-6.262;2023-01-15T17:19:10;13.38;;;8.15;;
28166;SDS011;15455;53.376;-6.262;2023-01-15T17:21:56;10.27;;;5.25;;
28166;SDS011;15455;53.376;-6.262;2023-01-15T17:24:45;9.07;;;5.78;;
28166;SDS011;15455;53.376;-6.262;2023-01-15T17:27:32;11.65;;;6.45;;
28166;SDS011;15455;53.376;-6.262;2023-01-15T17:30:17;11.95;;;7.20;;
28166;SDS011;15455;53.376;-6.262;2023-01-15T17:33:04;21.42;;;9.57;;
28166;SDS011;15455;53.376;-6.262;2023-01-15T17:35:51;13.82;;;5.05;;
28166;SDS011;15455;53.376;-6.262;2023-01-15T17:38:37;11.57;;;7.65;;
28166;SDS011;15455;53.376;-6.262;2023-01-15T17:41:23;21.13;;;10.23;;
28166;SDS011;15455;53.376;-6.262;2023-01-15T17:44:13;15.30;;;7.35;;
28166;SDS011;15455;53.376;-6.262;2023-01-15T17:46:59;14.85;;;6.93;;
28166;SDS011;15455;53.376;-6.262;2023-01-15T17:49:44;14.55;;;8.23;;
28166;SDS011;15455;53.376;-6.262;2023-01-15T17:52:29;13.48;;;6.60;;
28166;SDS011;15455;53.376;-6.262;2023-01-15T17:55:16;13.45;;;6.72;;
28166;SDS011;15455;53.376;-6.262;2023-01-15T17:58:23;14.38;;;6.80;;
28166;SDS011;15455;53.376;-6.262;2023-01-15T18:01:27;13.60;;;7.13;;
28166;SDS011;15455;53.376;-6.262;2023-01-15T18:04:45;12.27;;;6.53;;
28166;SDS011;15455;53.376;-6.262;2023-01-15T18:07:53;12.82;;;6.25;;
28166;SDS011;15455;53.376;-6.262;2023-01-15T18:10:40;14.40;;;7.28;;
28166;SDS011;15455;53.376;-6.262;2023-01-15T18:13:26;13.98;;;9.00;;
28166;SDS011;15455;53.376;-6.262;2023-01-15T18:16:12;11.63;;;7.05;;
28166;SDS011;15455;53.376;-6.262;2023-01-15T18:18:57;18.77;;;9.52;;
28166;SDS011;15455;53.376;-6.262;2023-01-15T18:21:43;12.13;;;7.32;;
28166;SDS011;15455;53.376;-6.262;2023-01-15T18:24:28;12.32;;;7.60;;
28166;SDS011;15455;53.376;-6.262;2023-01-15T18:27:13;17.80;;;9.48;;
28166;SDS011;15455;53.376;-6.262;2023-01-15T18:29:59;15.07;;;9.55;;
28166;SDS011;15455;53.376;-6.262;2023-01-15T18:32:44;15.43;;;7.32;;